Current | Forecast
Updated: 12:30 AM CET on December 13, 2017
Observed at Zaragoza, Spain
Temperature 3°C
Windchill 0°C
Humidity 81%
Dew Point 0°C
Wind SW at 9 km/h
Pressure 1023 hPa (Steady)
Conditions Clear
Visibility -
UV N/A
Clouds
Yesterday's Maximum 11°C
Yesterday's Minimum 3°C approx.
Yesterday's Heating Degree Days 20 approx.
Sunrise8:26 AM CET
Sunset5:36 PM CET
Moon Rise3:33 AM CET
Moon Set3:10 PM CET
Moon PhaseMoon Phase
Waning Crescent
Raw METARMETAR LEZG 122330Z 22005KT CAVOK 03/M00 Q1023


Monday
. High: 75° F.
Tuesday
. High: 86° F.
Wednesday
. High: 71° F.
Thursday
. High: 69° F.
Friday
. High: 78° F.
Saturday
. High: 75° F.
Sunday
. High: 69° F.
Monday
. High: 78° F.

Units: English | Metric

Find the Weather for any City, State or Zipcode, or Country:

U.S. State List | Severe Weather | Tropical Storms | Ski Conditions
United States | Canada | Central America | South America | Asia | Europe | Australia | Africa | Islands

Weather Underground

© Copyright 2017
The Weather Company, LLC